Impacts TAF Board INFO
FOR SITUATIONAL AWARENESS. NOT TO BE USED FOR FLIGHT PLANNING PURPOSES.
IDs:

KCVG - Cincinnati Intl, KY, US

Issued at 2059 UTC 14 Aug 2018
Updated at 2203 UTC 14 Aug 2018
Potential Impact None Slight Moderate High
Time2152Z 14/23Z 15/00Z 15/01Z 15/02Z 15/03Z 15/04Z 15/05Z 15/06Z 15/07Z 15/08Z 15/09Z 15/10Z 15/11Z>>
Type OBS PRVL PRVL PRVL PRVL PRVL PRVL PRVL PRVL PRVL PRVL PRVL PRVL PRVL
VIS 10 >6 >6 >6 >6 >6 >6 >6 >6 >6 >6 >6 >6 >6
CIG -- -- -- 250 250 250 250 250 250 250 250 250 250 250
Cover SCT SCT SCT BKN BKN BKN BKN BKN BKN BKN BKN BKN BKN BKN
FltCat VFR VFR VFR VFR VFR VFR VFR VFR VFR VFR VFR VFR VFR VFR
WX -- -- -- -- -- -- -- -- -- -- -- -- -- --
WDir 260 260 260 200 200 200 200 200 200 200 200 200 200 190
WSpd 7 4 4 3 3 3 3 3 3 3 3 3 3 3
WGst -- -- -- -- -- -- -- -- -- -- -- -- -- --

Raw TAF
KCVG 142059Z 1421/1524 26004KT P6SM SCT050
  FM150100 20003KT P6SM BKN250
  FM151100 19003KT P6SM BKN250
  FM151800 20008KT P6SM BKN070 BKN200


Raw METAR
KCVG 142152Z 26007KT 10SM FEW046 FEW090 SCT300 29/18 A3000 RMK AO2 SLP148 T02890183
KCVG 142052Z 26005KT 10SM FEW047 FEW300 29/19 A3001 RMK AO2 SLP150 MDT CU DSNT W T02940189 56013
KCVG 141952Z 31005KT 10SM FEW050 29/18 A3002 RMK AO2 SLP152 T02940178

METAR Board
Radar Display
Forecast Discussion

FOR SITUATIONAL AWARENESS. NOT TO BE USED FOR FLIGHT PLANNING PURPOSES.